Kansas City, Missouri
Traffic Map
Current Weather Conditions
Kansas City, Missouri
Overcast
Overcast
55°
Feels Like: 55°
Wind Chill: 55° Ceiling: 4300
Heat Index: 55° Visibility: 10mi
Dew Point: 25° Wind: 16mph
Humidity: 31% Direction: 100° (E)
Pressure: 30.21in Gusts: 22mph
Raw Report DataKMKC 222354Z 10014G19KT 10SM OVC043 13/M04 A3021 RMK AO2 SLP231 T01281039 10144 20122 56009
Traffic Incident Summary
Active as of:
Severity:
Category:
InformationThere was an issue retrieving the traffic information for this location. Please try a different location or try again shortly.
Advertisements
Track Severe Weather on mobile